Time;durP1;ratioP1;P1;durP2;ratioP2;P2;SDS_P1;SDS_P2;PMS_P1;PMS_P2;Temp;Humidity;BMP_temperature;BMP_pressure;BME280_temperature;BME280_humidity;BME280_pressure;Samples;Min_cycle;Max_cycle;Signal;HPM_P1;HPM_P2
2022/09/18 00:02:26;;;;;;;12.50;2.10;;;13.60;67.90;;;;;;4998933;28;20057;-57
2022/09/18 00:04:54;;;;;;;7.60;1.88;;;13.60;67.90;;;;;;5001275;28;20065;-56
2022/09/18 00:07:22;;;;;;;6.35;1.63;;;13.70;67.90;;;;;;4997792;28;20382;-55
2022/09/18 00:09:49;;;;;;;10.52;1.83;;;13.70;68.00;;;;;;5001387;28;20065;-56
2022/09/18 00:12:16;;;;;;;10.85;1.92;;;13.60;68.00;;;;;;4998088;28;20049;-57
2022/09/18 00:14:44;;;;;;;8.40;1.83;;;13.70;68.00;;;;;;5005593;28;20057;-56
2022/09/18 00:17:11;;;;;;;5.55;1.67;;;13.70;68.00;;;;;;4999595;28;20041;-53
2022/09/18 00:19:38;;;;;;;7.45;1.73;;;13.70;67.90;;;;;;4999274;28;20069;-56
2022/09/18 00:22:06;;;;;;;7.57;1.67;;;13.80;67.90;;;;;;5001472;28;20057;-54
2022/09/18 00:24:34;;;;;;;8.88;1.80;;;13.80;68.00;;;;;;5000296;28;20049;-54
2022/09/18 00:27:01;;;;;;;11.07;2.13;;;13.80;67.90;;;;;;5000716;28;20565;-57
2022/09/18 00:29:29;;;;;;;5.50;1.75;;;13.80;67.60;;;;;;5004229;28;20101;-56
2022/09/18 00:31:56;;;;;;;7.38;1.80;;;13.80;67.50;;;;;;4996824;28;20058;-55
2022/09/18 00:34:23;;;;;;;8.77;1.70;;;13.80;67.80;;;;;;5004614;28;20054;-56
2022/09/18 00:36:50;;;;;;;4.95;1.35;;;13.80;67.70;;;;;;5001887;28;20092;-56
2022/09/18 00:39:18;;;;;;;7.53;1.58;;;13.80;67.80;;;;;;4999895;28;20061;-55
2022/09/18 00:41:46;;;;;;;10.05;2.10;;;13.80;67.80;;;;;;4999421;28;20065;-57
2022/09/18 00:44:36;;;;;;;7.90;1.65;;;13.80;68.00;;;;;;5002133;28;20057;-56
2022/09/18 00:47:26;;;;;;;8.55;1.45;;;13.80;68.10;;;;;;4995938;28;20054;-57
2022/09/18 00:50:00;;;;;;;9.35;1.55;;;13.80;68.10;;;;;;5000616;28;20049;-56
2022/09/18 00:52:30;;;;;;;8.90;1.52;;;13.80;68.00;;;;;;5002982;28;20054;-56
2022/09/18 00:55:02;;;;;;;6.97;1.58;;;13.80;68.10;;;;;;5002278;28;20419;-57
2022/09/18 00:57:33;;;;;;;8.02;1.60;;;13.80;68.20;;;;;;4997054;28;20053;-59
2022/09/18 01:00:02;;;;;;;10.07;2.22;;;13.70;68.40;;;;;;4997642;28;20058;-53
2022/09/18 01:02:29;;;;;;;10.77;1.52;;;13.70;68.50;;;;;;4998898;28;20056;-56
2022/09/18 01:04:57;;;;;;;5.90;1.40;;;13.70;68.60;;;;;;5002289;28;20046;-56
2022/09/18 01:07:35;;;;;;;6.07;1.85;;;13.70;68.70;;;;;;4999704;28;20379;-56
2022/09/18 01:10:16;;;;;;;5.32;1.48;;;13.70;68.70;;;;;;4996525;28;20077;-54
2022/09/18 01:12:52;;;;;;;5.40;1.50;;;13.70;68.80;;;;;;5002866;28;20061;-56
2022/09/18 01:15:25;;;;;;;8.02;1.77;;;13.70;68.90;;;;;;5000041;28;20058;-58
2022/09/18 01:18:03;;;;;;;10.70;1.50;;;13.70;68.70;;;;;;5001532;28;20409;-57
2022/09/18 01:20:54;;;;;;;6.88;1.30;;;13.70;68.40;;;;;;4997810;28;20852;-51
2022/09/18 01:23:46;;;;;;;5.43;1.42;;;13.70;68.60;;;;;;4998714;28;20073;-57
2022/09/18 01:26:26;;;;;;;8.82;1.92;;;13.70;68.40;;;;;;5000694;28;20050;-56
2022/09/18 01:28:58;;;;;;;9.45;1.40;;;13.70;68.40;;;;;;4996531;28;20050;-57
2022/09/18 01:31:31;;;;;;;6.82;1.30;;;13.70;69.10;;;;;;4993135;28;20508;-58
2022/09/18 01:34:03;;;;;;;4.93;1.10;;;13.70;68.30;;;;;;5000187;28;20061;-59
2022/09/18 01:36:35;;;;;;;5.32;1.30;;;13.70;68.30;;;;;;4997133;28;20061;-55
2022/09/18 01:39:06;;;;;;;7.57;1.15;;;13.70;68.30;;;;;;4990648;28;20046;-55
2022/09/18 01:41:36;;;;;;;9.43;1.40;;;13.70;68.50;;;;;;4997786;28;20061;-56
2022/09/18 01:44:14;;;;;;;7.32;1.20;;;13.70;68.50;;;;;;4998835;28;20486;-56
2022/09/18 01:46:44;;;;;;;10.73;1.50;;;13.60;68.40;;;;;;5000985;28;20053;-54
2022/09/18 01:49:14;;;;;;;10.00;1.15;;;13.70;68.60;;;;;;5002737;28;20133;-56
2022/09/18 01:51:46;;;;;;;7.18;1.48;;;13.60;68.50;;;;;;4994672;28;20469;-56
2022/09/18 01:54:16;;;;;;;5.82;1.33;;;13.70;68.70;;;;;;5000712;28;20064;-55
2022/09/18 01:56:47;;;;;;;11.88;2.13;;;13.60;68.70;;;;;;5001950;28;20525;-56
2022/09/18 01:59:20;;;;;;;8.85;1.58;;;13.70;68.70;;;;;;4994529;28;20050;-56
2022/09/18 02:01:50;;;;;;;3.65;1.13;;;13.70;68.60;;;;;;4993645;28;20061;-55
2022/09/18 02:04:21;;;;;;;7.28;1.55;;;13.70;68.40;;;;;;4999653;28;20057;-55
2022/09/18 02:06:56;;;;;;;9.07;1.58;;;13.70;68.40;;;;;;4994429;28;20065;-57
2022/09/18 02:09:23;;;;;;;6.53;1.50;;;13.70;68.30;;;;;;5002996;28;20058;-56
2022/09/18 02:11:54;;;;;;;7.00;1.30;;;13.70;68.40;;;;;;4996004;28;20058;-58
2022/09/18 02:14:27;;;;;;;5.60;1.17;;;13.80;68.30;;;;;;4998825;28;20512;-55
2022/09/18 02:16:59;;;;;;;8.60;1.38;;;13.80;68.30;;;;;;4999212;28;20509;-58
2022/09/18 02:19:31;;;;;;;5.72;1.52;;;13.80;68.20;;;;;;4997117;28;20057;-54
2022/09/18 02:22:03;;;;;;;5.18;1.20;;;13.80;67.90;;;;;;4995433;28;20083;-55
2022/09/18 02:24:35;;;;;;;6.13;1.38;;;13.80;68.00;;;;;;5000908;28;20068;-56
2022/09/18 02:27:04;;;;;;;4.97;1.52;;;13.80;68.00;;;;;;4998150;28;20053;-56
2022/09/18 02:29:34;;;;;;;7.25;1.20;;;13.80;68.00;;;;;;5001302;28;20050;-55
2022/09/18 02:32:02;;;;;;;3.42;1.27;;;13.80;67.80;;;;;;4996817;28;20056;-51
2022/09/18 02:34:31;;;;;;;4.45;1.00;;;13.80;67.70;;;;;;4996705;28;20060;-55
2022/09/18 02:37:08;;;;;;;4.82;1.38;;;13.80;67.80;;;;;;4997409;28;20054;-57
2022/09/18 02:39:49;;;;;;;3.60;0.80;;;13.80;67.80;;;;;;4999946;28;20057;-55
2022/09/18 02:42:27;;;;;;;4.85;0.90;;;13.80;67.70;;;;;;4997068;28;20370;-56
2022/09/18 02:45:05;;;;;;;5.38;1.17;;;13.80;67.80;;;;;;5000235;28;20501;-59
2022/09/18 02:47:41;;;;;;;5.50;0.90;;;13.80;67.80;;;;;;4999287;28;20058;-56
2022/09/18 02:50:15;;;;;;;4.82;0.98;;;13.80;67.50;;;;;;4992217;28;20061;-56
2022/09/18 02:52:50;;;;;;;4.65;1.10;;;13.80;67.40;;;;;;4999431;28;20065;-54
2022/09/18 02:55:21;;;;;;;3.42;1.10;;;13.80;68.10;;;;;;5002852;28;20054;-55
2022/09/18 02:57:52;;;;;;;4.40;1.10;;;13.80;67.40;;;;;;4997278;28;20049;-54
2022/09/18 03:00:21;;;;;;;6.07;1.38;;;13.80;67.50;;;;;;4993501;28;20058;-54
2022/09/18 03:02:50;;;;;;;3.45;1.10;;;13.80;67.50;;;;;;4997653;28;20054;-52
2022/09/18 03:05:17;;;;;;;7.13;1.08;;;13.80;67.60;;;;;;4997609;28;20057;-55
2022/09/18 03:07:44;;;;;;;4.22;1.05;;;13.80;67.80;;;;;;5001507;28;20422;-55
2022/09/18 03:10:13;;;;;;;8.38;1.40;;;13.80;67.90;;;;;;4995658;28;20046;-53
2022/09/18 03:12:40;;;;;;;5.35;1.58;;;13.80;68.00;;;;;;4993619;28;20404;-54
2022/09/18 03:15:08;;;;;;;6.60;1.63;;;13.80;68.00;;;;;;5003491;28;20520;-54
2022/09/18 03:17:37;;;;;;;2.15;1.40;;;13.70;68.00;;;;;;5002140;28;20059;-55
2022/09/18 03:20:06;;;;;;;5.47;2.15;;;13.70;68.10;;;;;;4998940;28;20050;-54
2022/09/18 03:22:33;;;;;;;4.72;1.33;;;13.70;68.30;;;;;;5005013;28;20061;-56
2022/09/18 03:25:00;;;;;;;4.68;1.02;;;13.70;68.40;;;;;;5002891;28;20057;-56
2022/09/18 03:27:28;;;;;;;4.60;1.15;;;13.70;68.50;;;;;;5002835;28;20429;-57
2022/09/18 03:29:56;;;;;;;5.68;1.35;;;13.70;68.60;;;;;;5002717;28;20057;-52
2022/09/18 03:32:23;;;;;;;4.28;1.17;;;13.70;68.70;;;;;;5004747;28;20057;-56
2022/09/18 03:34:52;;;;;;;5.20;1.63;;;13.80;68.80;;;;;;4999045;28;20506;-55
2022/09/18 03:37:19;;;;;;;6.35;1.15;;;13.80;68.80;;;;;;4999890;28;20058;-56
2022/09/18 03:39:47;;;;;;;3.75;1.23;;;13.80;68.80;;;;;;4997894;28;20065;-56
2022/09/18 03:42:14;;;;;;;2.83;1.23;;;13.80;68.90;;;;;;4986812;28;20176;-59
2022/09/18 03:44:41;;;;;;;4.57;1.52;;;13.80;68.90;;;;;;4997311;28;20544;-53
2022/09/18 03:47:09;;;;;;;5.95;1.25;;;13.80;68.90;;;;;;5002368;28;20054;-51
2022/09/18 03:49:36;;;;;;;5.55;1.50;;;13.80;68.90;;;;;;5002879;28;20486;-51
2022/09/18 03:52:05;;;;;;;7.25;1.50;;;13.80;68.70;;;;;;5002131;28;20049;-53
2022/09/18 03:54:32;;;;;;;7.00;1.60;;;13.90;68.70;;;;;;5002289;28;20057;-56
2022/09/18 03:56:59;;;;;;;3.42;1.30;;;13.80;68.60;;;;;;4996468;28;20534;-54
2022/09/18 03:59:26;;;;;;;5.93;1.73;;;13.80;68.70;;;;;;4995326;28;21153;-56
2022/09/18 04:01:53;;;;;;;3.72;1.35;;;13.80;68.80;;;;;;5001434;28;20065;-56
2022/09/18 04:04:20;;;;;;;6.55;1.52;;;13.80;68.90;;;;;;5003615;28;20061;-55
2022/09/18 04:06:48;;;;;;;3.33;1.13;;;13.90;69.10;;;;;;5004740;28;20054;-53
2022/09/18 04:09:16;;;;;;;5.22;1.45;;;13.90;69.00;;;;;;5003015;28;20536;-56
2022/09/18 04:11:44;;;;;;;3.35;1.45;;;13.80;68.70;;;;;;4996963;28;20080;-56
2022/09/18 04:14:11;;;;;;;4.32;1.42;;;13.80;68.80;;;;;;5003347;28;20073;-55
2022/09/18 04:16:38;;;;;;;3.85;1.20;;;13.80;68.80;;;;;;4975346;28;20066;-56
2022/09/18 04:19:05;;;;;;;4.15;1.10;;;13.80;69.00;;;;;;4991904;28;20411;-56
2022/09/18 04:21:33;;;;;;;5.22;1.42;;;13.80;69.00;;;;;;5000379;28;20517;-52
2022/09/18 04:24:01;;;;;;;6.35;1.55;;;13.80;69.10;;;;;;5004705;28;20058;-56
2022/09/18 04:26:29;;;;;;;4.15;1.10;;;13.80;69.00;;;;;;4997658;28;20058;-60
2022/09/18 04:28:56;;;;;;;5.78;1.42;;;13.80;69.10;;;;;;4999355;28;20057;-54
2022/09/18 04:31:24;;;;;;;5.65;1.23;;;13.80;69.00;;;;;;5000559;28;20065;-52
2022/09/18 04:33:51;;;;;;;3.47;1.38;;;13.80;68.90;;;;;;4997364;28;20060;-54
2022/09/18 04:36:18;;;;;;;3.15;1.20;;;13.80;68.90;;;;;;5003665;28;20050;-50
2022/09/18 04:38:45;;;;;;;1.77;0.90;;;13.80;69.10;;;;;;5001695;28;20046;-51
2022/09/18 04:41:12;;;;;;;3.08;1.30;;;13.80;69.10;;;;;;5000849;28;20057;-53
2022/09/18 04:43:42;;;;;;;4.35;1.13;;;13.80;69.20;;;;;;5002442;28;20065;-52
2022/09/18 04:46:09;;;;;;;4.00;1.10;;;13.80;69.20;;;;;;5000832;28;20490;-56
2022/09/18 04:48:36;;;;;;;3.30;1.17;;;13.80;69.00;;;;;;5000501;28;20053;-51
2022/09/18 04:51:04;;;;;;;4.40;0.85;;;13.90;69.10;;;;;;4999028;28;20502;-54
2022/09/18 04:53:33;;;;;;;4.45;1.13;;;13.80;69.00;;;;;;4999026;28;20053;-52
2022/09/18 04:56:00;;;;;;;3.95;1.08;;;13.80;69.00;;;;;;5003513;28;20054;-56
2022/09/18 04:58:27;;;;;;;7.32;1.52;;;13.90;69.20;;;;;;4998707;28;20061;-54
2022/09/18 05:00:55;;;;;;;3.25;1.00;;;13.80;69.00;;;;;;4995056;28;20050;-55
2022/09/18 05:03:23;;;;;;;2.20;0.70;;;13.90;69.00;;;;;;5001386;28;20505;-53
2022/09/18 05:05:50;;;;;;;7.03;1.42;;;13.90;69.10;;;;;;5002794;28;20050;-55
2022/09/18 05:08:17;;;;;;;3.60;1.23;;;13.90;69.00;;;;;;4996066;28;20054;-54
2022/09/18 05:10:45;;;;;;;4.18;1.05;;;13.90;68.90;;;;;;4993536;28;20517;-57
2022/09/18 05:13:12;;;;;;;4.38;1.25;;;13.90;68.80;;;;;;4997887;28;20062;-54
2022/09/18 05:15:39;;;;;;;7.32;1.50;;;13.80;68.80;;;;;;4998111;28;20421;-53
2022/09/18 05:18:08;;;;;;;3.75;1.00;;;13.80;68.90;;;;;;4999493;28;20512;-54
2022/09/18 05:20:36;;;;;;;3.55;1.05;;;13.80;69.10;;;;;;4992055;28;20409;-54
2022/09/18 05:23:03;;;;;;;4.65;1.30;;;13.80;69.30;;;;;;4993665;28;20059;-55
2022/09/18 05:25:30;;;;;;;5.82;1.45;;;13.80;69.40;;;;;;4995385;28;20053;-54
2022/09/18 05:27:59;;;;;;;5.00;1.30;;;13.80;69.40;;;;;;4998181;28;20057;-54
2022/09/18 05:30:27;;;;;;;2.28;1.35;;;13.80;69.40;;;;;;4992737;28;20046;-55
2022/09/18 05:32:57;;;;;;;3.70;1.33;;;13.80;69.40;;;;;;4991568;28;20498;-52
2022/09/18 05:35:27;;;;;;;3.22;1.20;;;13.80;69.50;;;;;;4995435;28;20057;-54
2022/09/18 05:37:55;;;;;;;9.55;1.90;;;13.80;69.50;;;;;;4991571;28;20050;-57
2022/09/18 05:40:24;;;;;;;4.70;1.52;;;13.80;69.60;;;;;;4984148;28;20050;-53
2022/09/18 05:42:52;;;;;;;4.72;1.70;;;13.80;69.70;;;;;;5000365;28;20054;-55
2022/09/18 05:45:20;;;;;;;3.55;1.60;;;13.80;69.90;;;;;;4987011;28;20072;-54
2022/09/18 05:47:55;;;;;;;6.47;1.73;;;13.80;70.00;;;;;;5000477;28;20057;-55
2022/09/18 05:50:23;;;;;;;6.40;2.22;;;13.80;70.00;;;;;;4991757;28;20058;-56
2022/09/18 05:52:58;;;;;;;2.97;1.33;;;13.80;70.10;;;;;;4990587;28;20868;-55
2022/09/18 05:55:27;;;;;;;4.93;1.73;;;13.80;70.30;;;;;;4994227;28;20041;-54
2022/09/18 05:57:55;;;;;;;4.00;1.50;;;13.80;70.40;;;;;;4984480;28;20069;-56
2022/09/18 06:00:22;;;;;;;5.03;1.38;;;13.80;70.40;;;;;;4989350;28;20054;-55
2022/09/18 06:02:53;;;;;;;4.93;1.33;;;13.80;70.50;;;;;;4988406;28;20065;-52
2022/09/18 06:05:20;;;;;;;3.88;1.30;;;13.80;70.60;;;;;;4993471;28;20057;-56
2022/09/18 06:07:48;;;;;;;9.27;1.73;;;13.90;70.50;;;;;;4995685;28;20057;-56
2022/09/18 06:10:17;;;;;;;3.78;1.40;;;13.80;70.40;;;;;;4991786;28;20084;-54
2022/09/18 06:12:44;;;;;;;7.10;1.42;;;13.80;71.10;;;;;;4993637;28;20077;-57
2022/09/18 06:15:13;;;;;;;4.90;1.40;;;13.80;70.50;;;;;;4999101;28;20054;-51
2022/09/18 06:17:40;;;;;;;8.25;2.00;;;13.90;70.60;;;;;;4989897;28;20119;-55
2022/09/18 06:20:08;;;;;;;3.97;1.10;;;13.90;70.70;;;;;;4988252;28;20061;-54
2022/09/18 06:22:36;;;;;;;4.80;1.25;;;13.90;70.60;;;;;;4996859;28;20054;-54
2022/09/18 06:25:04;;;;;;;9.75;1.67;;;13.90;70.70;;;;;;4992809;28;20061;-57
2022/09/18 06:27:33;;;;;;;10.43;1.55;;;13.90;70.80;;;;;;4994937;28;20549;-55
2022/09/18 06:30:00;;;;;;;6.88;1.20;;;13.90;70.70;;;;;;4996531;28;20517;-55
2022/09/18 06:32:27;;;;;;;7.43;1.45;;;13.90;70.60;;;;;;4993160;28;20497;-56
2022/09/18 06:34:55;;;;;;;5.72;1.60;;;13.90;70.80;;;;;;4997965;28;20520;-57
2022/09/18 06:37:22;;;;;;;3.78;1.40;;;13.90;70.80;;;;;;4987443;28;20533;-55
2022/09/18 06:39:49;;;;;;;6.85;1.40;;;14.00;70.70;;;;;;4988473;28;20053;-54
2022/09/18 06:42:16;;;;;;;4.68;1.63;;;14.00;70.60;;;;;;4991689;28;20058;-58
2022/09/18 06:44:45;;;;;;;4.80;1.38;;;14.00;70.40;;;;;;5001921;28;20057;-53
2022/09/18 06:47:12;;;;;;;5.40;1.25;;;14.00;70.20;;;;;;4994890;28;20414;-51
2022/09/18 06:49:39;;;;;;;7.70;1.95;;;14.00;70.30;;;;;;4990776;28;20053;-57
2022/09/18 06:52:07;;;;;;;6.13;1.33;;;14.00;70.10;;;;;;4993933;28;20069;-55
2022/09/18 06:54:34;;;;;;;3.03;1.15;;;14.00;70.10;;;;;;4999610;28;20069;-55
2022/09/18 06:57:01;;;;;;;4.28;1.15;;;14.00;70.00;;;;;;4986499;28;20065;-52
2022/09/18 06:59:28;;;;;;;4.38;1.15;;;14.00;70.00;;;;;;4998877;28;20119;-62
2022/09/18 07:01:57;;;;;;;7.00;1.20;;;14.00;69.80;;;;;;4989930;28;20053;-55
2022/09/18 07:04:24;;;;;;;6.80;1.30;;;14.00;69.70;;;;;;4990915;28;20076;-57
2022/09/18 07:06:51;;;;;;;9.65;1.50;;;14.00;69.80;;;;;;4995142;28;20062;-57
2022/09/18 07:09:18;;;;;;;6.13;1.42;;;14.00;69.70;;;;;;4994955;28;20073;-53
2022/09/18 07:11:46;;;;;;;4.57;1.17;;;14.00;69.70;;;;;;4993247;28;20401;-56
2022/09/18 07:14:13;;;;;;;6.40;2.03;;;14.00;69.70;;;;;;5000165;28;20061;-56
2022/09/18 07:16:40;;;;;;;7.90;1.45;;;14.00;69.80;;;;;;4994258;28;20057;-55
2022/09/18 07:19:08;;;;;;;7.50;1.25;;;14.00;70.00;;;;;;4995325;28;20065;-54
2022/09/18 07:21:37;;;;;;;8.10;1.27;;;14.00;70.30;;;;;;4993970;28;20058;-62
2022/09/18 07:24:04;;;;;;;8.07;1.75;;;14.10;70.40;;;;;;4999198;28;20069;-52
2022/09/18 07:26:32;;;;;;;5.47;1.40;;;14.10;70.20;;;;;;4984308;28;20605;-54
2022/09/18 07:28:59;;;;;;;8.82;1.95;;;14.10;70.10;;;;;;4991320;28;20050;-55
2022/09/18 07:31:26;;;;;;;7.00;1.30;;;14.10;70.10;;;;;;4992862;28;20394;-54
2022/09/18 07:33:55;;;;;;;5.40;1.63;;;14.20;70.00;;;;;;5001122;28;20060;-57
2022/09/18 07:36:23;;;;;;;4.35;1.30;;;14.20;69.70;;;;;;5001513;28;20501;-56
2022/09/18 07:38:51;;;;;;;6.70;1.67;;;14.20;69.80;;;;;;4999202;28;20049;-55
2022/09/18 07:41:18;;;;;;;5.85;1.38;;;14.20;69.50;;;;;;4995465;28;20052;-53
2022/09/18 07:43:48;;;;;;;10.07;2.00;;;14.20;69.50;;;;;;5001458;28;20516;-56
2022/09/18 07:46:15;;;;;;;5.97;1.70;;;14.30;68.90;;;;;;4998105;28;20061;-55
2022/09/18 07:48:43;;;;;;;15.55;2.15;;;14.30;68.70;;;;;;4995125;28;20062;-56
2022/09/18 07:51:10;;;;;;;8.48;1.30;;;14.30;69.00;;;;;;4995724;28;20057;-56
2022/09/18 07:53:40;;;;;;;4.70;1.17;;;14.40;69.10;;;;;;4992741;28;20050;-55
2022/09/18 07:56:08;;;;;;;3.97;1.40;;;14.40;69.00;;;;;;4996234;28;20518;-56
2022/09/18 07:58:36;;;;;;;5.55;1.50;;;14.40;68.70;;;;;;4995812;28;21506;-56
2022/09/18 08:01:04;;;;;;;5.20;1.83;;;14.40;68.30;;;;;;4989304;28;20442;-55
2022/09/18 08:03:32;;;;;;;6.30;1.40;;;14.40;68.30;;;;;;5000422;28;20050;-55
2022/09/18 08:05:59;;;;;;;3.25;1.33;;;14.50;68.40;;;;;;4994980;28;20065;-56
2022/09/18 08:08:26;;;;;;;8.48;1.42;;;14.50;68.60;;;;;;4995864;28;20045;-56
2022/09/18 08:10:56;;;;;;;6.03;1.73;;;14.50;68.70;;;;;;4987798;28;20498;-55
2022/09/18 08:13:23;;;;;;;6.85;1.58;;;14.50;68.50;;;;;;4995733;28;20050;-54
2022/09/18 08:15:50;;;;;;;4.85;1.30;;;14.50;68.40;;;;;;4992425;28;20049;-55
2022/09/18 08:18:20;;;;;;;4.65;1.23;;;14.60;68.50;;;;;;4998076;28;20065;-54
2022/09/18 08:20:47;;;;;;;7.32;1.33;;;14.60;68.50;;;;;;4986349;28;20515;-58
2022/09/18 08:23:14;;;;;;;5.20;1.50;;;14.60;68.40;;;;;;4994711;28;20046;-55
2022/09/18 08:25:41;;;;;;;3.85;1.13;;;14.70;68.50;;;;;;4992528;28;20060;-54
2022/09/18 08:28:10;;;;;;;5.85;1.13;;;14.70;68.70;;;;;;4996252;28;20345;-57
2022/09/18 08:30:37;;;;;;;9.35;1.13;;;14.80;68.80;;;;;;4993054;28;20405;-56
2022/09/18 08:33:06;;;;;;;5.93;1.40;;;14.80;68.60;;;;;;5004406;28;20058;-56
2022/09/18 08:35:34;;;;;;;2.25;1.05;;;14.80;68.20;;;;;;4997834;28;20058;-55
2022/09/18 08:38:01;;;;;;;4.40;1.10;;;14.80;68.30;;;;;;4994089;28;20502;-55
2022/09/18 08:40:45;;;;;;;2.58;0.93;;;14.80;67.80;;;;;;4981176;28;20494;-55
2022/09/18 08:43:25;;;;;;;6.35;1.60;;;14.90;67.80;;;;;;4998722;28;20054;-57
2022/09/18 08:45:57;;;;;;;3.22;1.00;;;14.90;67.90;;;;;;4996534;28;20058;-58
2022/09/18 08:48:27;;;;;;;4.85;1.20;;;14.90;67.50;;;;;;5000721;28;20057;-56
2022/09/18 08:50:59;;;;;;;5.82;1.20;;;15.00;67.10;;;;;;4992961;28;20054;-55
2022/09/18 08:53:34;;;;;;;5.57;1.85;;;15.00;66.50;;;;;;4991574;28;20057;-57
2022/09/18 08:56:04;;;;;;;5.22;1.05;;;15.00;66.30;;;;;;4993613;28;20061;-55
2022/09/18 08:58:38;;;;;;;6.25;1.10;;;15.00;66.10;;;;;;4987549;28;20054;-56
2022/09/18 09:01:09;;;;;;;8.73;1.20;;;15.00;65.70;;;;;;4993112;28;20050;-56
2022/09/18 09:03:50;;;;;;;5.28;0.73;;;14.90;65.10;;;;;;4990504;28;20498;-55
2022/09/18 09:06:48;;;;;;;10.68;4.10;;;15.00;65.20;;;;;;4991301;28;20512;-56
2022/09/18 09:09:34;;;;;;;5.78;1.45;;;15.00;65.10;;;;;;5002167;28;20494;-54
2022/09/18 09:12:12;;;;;;;3.35;1.00;;;15.00;64.80;;;;;;4994887;28;20054;-54
2022/09/18 09:14:55;;;;;;;4.32;1.15;;;15.00;64.90;;;;;;4997939;28;20061;-55
2022/09/18 09:17:38;;;;;;;6.20;1.17;;;15.00;65.00;;;;;;4997786;28;20528;-58
2022/09/18 09:20:17;;;;;;;2.53;1.13;;;15.00;65.30;;;;;;4956589;28;20050;-55
2022/09/18 09:22:51;;;;;;;3.17;1.15;;;15.10;65.40;;;;;;4956664;28;20059;-57
2022/09/18 09:25:22;;;;;;;5.10;1.20;;;15.10;65.60;;;;;;4960308;28;20054;-54
2022/09/18 09:28:01;;;;;;;9.48;1.30;;;15.10;65.50;;;;;;4962064;28;20066;-56
2022/09/18 09:30:34;;;;;;;5.75;1.50;;;15.20;65.10;;;;;;4956067;28;20050;-58
2022/09/18 09:33:07;;;;;;;3.00;1.23;;;15.20;65.50;;;;;;4962925;28;20506;-57
2022/09/18 09:35:38;;;;;;;3.35;1.30;;;15.30;65.50;;;;;;4963786;28;20070;-57
2022/09/18 09:38:29;;;;;;;4.13;1.10;;;15.30;64.50;;;;;;4957417;28;20058;-53
2022/09/18 09:40:59;;;;;;;3.42;1.20;;;15.30;64.70;;;;;;4952597;28;20055;-56
2022/09/18 09:43:30;;;;;;;10.68;1.70;;;15.30;64.90;;;;;;4959761;28;20055;-58
2022/09/18 09:46:02;;;;;;;6.78;1.88;;;15.30;65.70;;;;;;4954163;28;20066;-56
2022/09/18 09:48:35;;;;;;;3.97;1.10;;;15.30;64.90;;;;;;4959190;28;20063;-57
2022/09/18 09:51:09;;;;;;;4.95;1.40;;;15.30;65.20;;;;;;4952819;28;20054;-57
2022/09/18 09:53:37;;;;;;;5.90;1.48;;;15.20;65.30;;;;;;4957741;28;20491;-60
2022/09/18 09:56:14;;;;;;;6.13;1.27;;;15.20;65.30;;;;;;4960152;28;20065;-57
2022/09/18 09:58:48;;;;;;;4.43;1.60;;;15.20;65.00;;;;;;4955247;28;20055;-56
2022/09/18 10:01:21;;;;;;;5.60;1.50;;;15.20;65.20;;;;;;4957343;28;20521;-60
2022/09/18 10:04:01;;;;;;;4.70;1.55;;;15.20;65.30;;;;;;4960108;28;20066;-57
2022/09/18 10:06:38;;;;;;;2.70;1.15;;;15.20;64.60;;;;;;4959438;28;20526;-56
2022/09/18 10:09:14;;;;;;;4.22;1.42;;;15.20;64.80;;;;;;4957303;28;20125;-52
2022/09/18 10:11:47;;;;;;;8.95;1.52;;;15.10;64.80;;;;;;4951461;28;20377;-55
2022/09/18 10:14:19;;;;;;;3.55;1.60;;;15.00;64.90;;;;;;4959501;28;20467;-52
2022/09/18 10:16:51;;;;;;;3.03;1.30;;;15.00;65.20;;;;;;4961479;28;20062;-54
2022/09/18 10:19:21;;;;;;;7.97;1.85;;;14.90;65.80;;;;;;4986440;28;20053;-54
2022/09/18 10:21:50;;;;;;;6.57;1.42;;;14.90;65.40;;;;;;4994964;28;20395;-56
2022/09/18 10:24:25;;;;;;;6.80;1.70;;;14.90;65.90;;;;;;5001849;28;20480;-52
2022/09/18 10:26:57;;;;;;;2.65;1.80;;;14.80;66.10;;;;;;4997920;28;20056;-54
2022/09/18 10:29:24;;;;;;;5.47;1.50;;;14.90;66.80;;;;;;4998190;28;20062;-52
2022/09/18 10:31:54;;;;;;;3.42;1.13;;;14.90;66.70;;;;;;4992703;28;20045;-54
2022/09/18 10:34:39;;;;;;;1.83;1.10;;;14.90;66.60;;;;;;4997942;28;20053;-55
2022/09/18 10:37:14;;;;;;;3.83;1.60;;;14.90;66.50;;;;;;4998858;28;20064;-55
2022/09/18 10:39:50;;;;;;;3.88;1.55;;;14.90;66.90;;;;;;4996666;28;20413;-55
2022/09/18 10:42:21;;;;;;;5.30;1.35;;;14.90;67.10;;;;;;4996163;28;20535;-57
2022/09/18 10:44:52;;;;;;;4.35;1.65;;;15.00;67.10;;;;;;4992998;28;20053;-58
2022/09/18 10:47:25;;;;;;;1.95;1.30;;;15.00;66.90;;;;;;5001699;28;20497;-54
2022/09/18 10:49:55;;;;;;;4.10;1.50;;;15.10;66.80;;;;;;4996002;28;20493;-57
2022/09/18 10:52:30;;;;;;;3.70;1.70;;;15.10;66.30;;;;;;4999076;28;20046;-56
2022/09/18 10:55:13;;;;;;;6.70;1.58;;;15.10;65.90;;;;;;4999677;28;20631;-56
2022/09/18 10:57:43;;;;;;;3.63;1.13;;;15.10;65.60;;;;;;4992235;28;20065;-55
2022/09/18 11:00:37;;;;;;;3.00;1.25;;;15.10;65.50;;;;;;4991674;28;20064;-56
2022/09/18 11:03:23;;;;;;;2.67;1.33;;;15.10;65.00;;;;;;5000349;28;20498;-55
2022/09/18 11:05:54;;;;;;;3.42;1.27;;;15.20;65.10;;;;;;4994254;28;20367;-57
2022/09/18 11:08:25;;;;;;;3.33;1.20;;;15.20;65.00;;;;;;5001023;28;20046;-51
2022/09/18 11:11:00;;;;;;;3.22;1.30;;;15.10;64.60;;;;;;4990585;28;20060;-61
2022/09/18 11:13:30;;;;;;;4.00;1.58;;;15.10;64.20;;;;;;4994170;28;20054;-60
2022/09/18 11:15:58;;;;;;;4.00;1.00;;;15.10;64.10;;;;;;4998786;28;20528;-59
2022/09/18 11:18:29;;;;;;;2.95;1.23;;;15.10;64.20;;;;;;4995175;28;20072;-56
2022/09/18 11:21:00;;;;;;;4.93;1.67;;;15.00;64.40;;;;;;4994655;28;20548;-56
2022/09/18 11:23:29;;;;;;;4.25;1.60;;;15.00;64.50;;;;;;5000015;28;20401;-55
2022/09/18 11:26:19;;;;;;;4.00;1.33;;;14.90;64.10;;;;;;4999300;28;20054;-54
2022/09/18 11:29:04;;;;;;;4.55;1.67;;;14.90;64.00;;;;;;4996389;28;20494;-54
2022/09/18 11:31:41;;;;;;;3.10;1.60;;;14.80;64.30;;;;;;4981454;28;20061;-56
2022/09/18 11:34:22;;;;;;;6.95;1.80;;;14.80;65.10;;;;;;5002101;28;20054;-57
2022/09/18 11:36:52;;;;;;;3.55;2.08;;;14.80;65.20;;;;;;5005931;28;20080;-54
2022/09/18 11:39:24;;;;;;;4.53;1.85;;;14.80;65.50;;;;;;5002416;28;20062;-55
2022/09/18 11:41:53;;;;;;;5.88;2.13;;;14.80;65.20;;;;;;4998645;28;20381;-56
2022/09/18 11:44:25;;;;;;;8.98;2.38;;;14.80;65.40;;;;;;5004985;28;20060;-56
2022/09/18 11:47:21;;;;;;;4.95;2.20;;;14.80;64.90;;;;;;5004622;28;20061;-57
2022/09/18 11:49:57;;;;;;;4.45;1.77;;;14.80;64.70;;;;;;5004944;28;20061;-60
2022/09/18 11:52:30;;;;;;;4.45;1.88;;;14.80;64.60;;;;;;4996492;28;20055;-55
2022/09/18 11:55:03;;;;;;;3.47;1.98;;;14.80;64.70;;;;;;5005484;28;20410;-52
2022/09/18 11:57:35;;;;;;;4.97;2.08;;;14.80;65.30;;;;;;5000985;28;20426;-56
2022/09/18 12:00:06;;;;;;;5.40;2.35;;;14.80;64.90;;;;;;5002190;28;20042;-57
2022/09/18 12:02:39;;;;;;;4.88;1.90;;;14.80;65.00;;;;;;5004585;28;20502;-53
2022/09/18 12:05:18;;;;;;;3.58;1.90;;;14.80;65.20;;;;;;5004768;28;20061;-56
2022/09/18 12:07:55;;;;;;;5.45;2.00;;;14.70;65.20;;;;;;5005031;28;20058;-54
2022/09/18 12:10:31;;;;;;;9.63;2.25;;;14.70;65.20;;;;;;4997052;28;20073;-55
2022/09/18 12:13:15;;;;;;;2.85;1.70;;;14.80;65.70;;;;;;5002998;28;20069;-57
2022/09/18 12:15:46;;;;;;;3.60;1.90;;;14.70;65.70;;;;;;5004174;28;20058;-55
2022/09/18 12:18:19;;;;;;;3.05;1.52;;;14.80;65.70;;;;;;5003058;28;20133;-55
2022/09/18 12:20:52;;;;;;;4.05;2.00;;;14.80;65.80;;;;;;5000695;28;20069;-53
2022/09/18 12:23:22;;;;;;;4.65;1.63;;;14.70;65.20;;;;;;5002379;28;20494;-54
2022/09/18 12:26:02;;;;;;;2.88;1.80;;;14.70;65.50;;;;;;5000788;28;20061;-56
2022/09/18 12:28:37;;;;;;;5.18;1.77;;;14.70;66.00;;;;;;5002224;28;20507;-53
2022/09/18 12:31:14;;;;;;;4.78;1.85;;;14.70;66.00;;;;;;5001455;28;20062;-52
2022/09/18 12:33:50;;;;;;;4.85;1.90;;;14.70;66.40;;;;;;5003783;28;20053;-55
2022/09/18 12:36:52;;;;;;;4.30;1.85;;;14.70;66.50;;;;;;5001295;28;20069;-55
2022/09/18 12:39:36;;;;;;;4.13;1.50;;;14.70;66.00;;;;;;4999793;28;20076;-54
2022/09/18 12:42:18;;;;;;;5.22;1.65;;;14.70;65.90;;;;;;5001864;28;20053;-55
2022/09/18 12:45:21;;;;;;;4.50;1.58;;;14.70;66.00;;;;;;5004606;28;20058;-53
2022/09/18 12:48:07;;;;;;;7.00;1.73;;;14.70;66.20;;;;;;5004095;28;20520;-59
2022/09/18 12:50:51;;;;;;;3.78;1.70;;;14.70;66.20;;;;;;4998982;28;20057;-55
2022/09/18 12:53:34;;;;;;;5.07;1.92;;;14.60;66.60;;;;;;5003928;28;20474;-53
2022/09/18 12:56:11;;;;;;;5.38;1.77;;;14.70;67.30;;;;;;5000338;28;20065;-57
2022/09/18 12:59:00;;;;;;;3.35;1.42;;;14.70;67.50;;;;;;4997586;28;20054;-56
2022/09/18 13:01:34;;;;;;;3.38;1.50;;;14.70;67.00;;;;;;5001186;28;20068;-56
2022/09/18 13:04:06;;;;;;;2.03;1.27;;;14.80;67.40;;;;;;5003723;28;20050;-55
2022/09/18 13:06:42;;;;;;;3.30;1.58;;;14.80;67.50;;;;;;4996991;28;20057;-51
2022/09/18 13:09:18;;;;;;;4.05;1.80;;;14.80;67.90;;;;;;5001982;28;20076;-62